Time,TemperatureF,DewpointF,PressureIn,WindDirection,WindDirectionDegrees,WindSpeedMPH,WindSpeedGustMPH,Humidity,HourlyPrecipIn,Conditions,Clouds,dailyrainin,SolarRadiationWatts/m^2,SoftwareType,DateUTC
2013-07-20 00:01:00,57.0,45.0,-100.00,SE,131,0.0,0.0,63,0.00,,,0.00,51.000000,,2013-07-20 06:01:00,
2013-07-20 00:21:00,57.0,45.0,-100.00,SE,131,0.0,0.0,64,0.00,,,0.00,51.000000,,2013-07-20 06:21:00,
2013-07-20 00:43:00,56.0,47.0,-100.00,SE,131,0.0,0.0,72,0.00,,,0.00,51.000000,,2013-07-20 06:43:00,
2013-07-20 00:52:00,55.0,47.0,-100.00,SE,131,0.0,1.0,74,0.00,,,0.00,51.000000,,2013-07-20 06:52:00,
2013-07-20 01:33:00,53.0,44.0,-100.00,SE,131,0.0,0.0,72,0.00,,,0.00,51.000000,,2013-07-20 07:33:00,
2013-07-20 01:44:00,53.0,44.0,-100.00,SE,131,0.0,0.0,71,0.00,,,0.00,51.000000,,2013-07-20 07:44:00,
2013-07-20 01:53:00,53.0,45.0,-100.00,SE,131,0.0,0.0,75,0.00,,,0.00,51.000000,,2013-07-20 07:53:00,
2013-07-20 02:01:00,52.0,45.0,-100.00,SE,131,0.0,0.0,76,0.00,,,0.00,51.000000,,2013-07-20 08:01:00,
2013-07-20 02:52:00,51.0,45.0,-100.00,SE,131,0.0,0.0,79,0.00,,,0.00,51.000000,,2013-07-20 08:52:00,
2013-07-20 03:01:00,50.0,45.0,-100.00,SE,131,0.0,0.0,82,0.00,,,0.00,51.000000,,2013-07-20 09:01:00,
2013-07-20 03:11:00,50.0,44.0,-100.00,SE,131,0.0,1.0,80,0.00,,,0.00,51.000000,,2013-07-20 09:11:00,
2013-07-20 03:33:00,50.0,45.0,-100.00,SE,131,0.0,0.0,82,0.00,,,0.00,51.000000,,2013-07-20 09:33:00,
2013-07-20 03:43:00,49.0,43.0,-100.00,NE,44,1.0,3.0,81,0.00,,,0.00,51.000000,,2013-07-20 09:43:00,
2013-07-20 03:53:00,49.0,43.0,-100.00,NE,44,0.0,3.0,80,0.00,,,0.00,51.000000,,2013-07-20 09:53:00,
2013-07-20 04:01:00,49.0,42.0,-100.00,NE,44,0.0,1.0,78,0.00,,,0.00,51.000000,,2013-07-20 10:01:00,
2013-07-20 04:11:00,49.0,42.0,-100.00,NE,44,0.0,0.0,78,0.00,,,0.00,51.000000,,2013-07-20 10:11:00,
2013-07-20 04:32:00,49.0,43.0,-100.00,NE,44,0.0,0.0,80,0.00,,,0.00,51.000000,,2013-07-20 10:32:00,
2013-07-20 04:42:00,48.0,43.0,-100.00,NE,44,0.0,0.0,82,0.00,,,0.00,51.000000,,2013-07-20 10:42:00,
2013-07-20 04:52:00,48.0,43.0,-100.00,NE,44,0.0,0.0,82,0.00,,,0.00,51.000000,,2013-07-20 10:52:00,
2013-07-20 05:01:00,48.0,43.0,-100.00,NE,44,0.0,0.0,82,0.00,,,0.00,51.000000,,2013-07-20 11:01:00,
2013-07-20 05:11:00,48.0,42.0,-100.00,NE,44,0.0,0.0,81,0.00,,,0.00,51.000000,,2013-07-20 11:11:00,
2013-07-20 05:21:00,47.0,41.0,-100.00,NE,44,0.0,1.0,81,0.00,,,0.00,51.000000,,2013-07-20 11:21:00,
2013-07-20 05:32:00,47.0,42.0,-100.00,NE,44,0.0,0.0,82,0.00,,,0.00,51.000000,,2013-07-20 11:32:00,
2013-07-20 05:43:00,47.0,42.0,-100.00,NE,44,0.0,1.0,82,0.00,,,0.00,51.000000,,2013-07-20 11:43:00,
2013-07-20 05:52:00,47.0,42.0,-100.00,NE,44,0.0,2.0,84,0.00,,,0.00,51.000000,,2013-07-20 11:52:00,
2013-07-20 06:01:00,46.0,42.0,-100.00,NE,44,0.0,0.0,85,0.00,,,0.00,53.000000,,2013-07-20 12:01:00,
2013-07-20 06:11:00,46.0,42.0,-100.00,NE,44,0.0,0.0,86,0.00,,,0.00,53.000000,,2013-07-20 12:11:00,
2013-07-20 06:32:00,46.0,43.0,-100.00,NE,44,0.0,0.0,89,0.00,,,0.00,62.000000,,2013-07-20 12:32:00,
2013-07-20 06:52:00,45.0,42.0,-100.00,NE,44,0.0,0.0,89,0.00,,,0.00,72.000000,,2013-07-20 12:52:00,
2013-07-20 07:01:00,45.0,42.0,-100.00,NE,44,0.0,0.0,89,0.00,,,0.00,76.000000,,2013-07-20 13:01:00,
2013-07-20 07:11:00,46.0,43.0,-100.00,NE,44,0.0,0.0,89,0.00,,,0.00,79.000000,,2013-07-20 13:11:00,
2013-07-20 07:22:00,47.0,43.0,-100.00,NE,44,0.0,0.0,87,0.00,,,0.00,158.000000,,2013-07-20 13:22:00,
2013-07-20 07:52:00,51.0,43.0,-100.00,NE,44,0.0,0.0,75,0.00,,,0.00,248.000000,,2013-07-20 13:52:00,
2013-07-20 08:32:00,55.0,45.0,-100.00,NE,43,1.0,2.0,68,0.00,,,0.00,383.000000,,2013-07-20 14:32:00,
2013-07-20 08:53:00,56.0,43.0,-100.00,NE,43,0.0,2.0,62,0.00,,,0.00,457.000000,,2013-07-20 14:53:00,
2013-07-20 09:33:00,61.0,43.0,-100.00,West,275,0.0,2.0,52,0.00,,,0.00,608.000000,,2013-07-20 15:33:00,
2013-07-20 09:44:00,62.0,43.0,-100.00,West,275,0.0,2.0,50,0.00,,,0.00,635.000000,,2013-07-20 15:44:00,
2013-07-20 09:52:00,63.0,45.0,-100.00,West,275,0.0,1.0,51,0.00,,,0.00,654.000000,,2013-07-20 15:52:00,
2013-07-20 10:01:00,64.0,44.0,-100.00,East,81,1.0,3.0,49,0.00,,,0.00,703.000000,,2013-07-20 16:01:00,
2013-07-20 10:32:00,64.0,43.0,-100.00,ESE,119,1.0,2.0,47,0.00,,,0.00,784.000000,,2013-07-20 16:32:00,
2013-07-20 10:43:00,66.0,45.0,-100.00,ESE,119,0.0,3.0,47,0.00,,,0.00,810.000000,,2013-07-20 16:43:00,
2013-07-20 10:52:00,67.0,44.0,-100.00,ESE,116,0.0,3.0,44,0.00,,,0.00,835.000000,,2013-07-20 16:52:00,
2013-07-20 11:02:00,68.0,43.0,-100.00,ESE,116,1.0,3.0,41,0.00,,,0.00,874.000000,,2013-07-20 17:02:00,
2013-07-20 11:11:00,68.0,41.0,-100.00,East,83,1.0,3.0,38,0.00,,,0.00,891.000000,,2013-07-20 17:11:00,
2013-07-20 11:22:00,68.0,43.0,-100.00,East,84,0.0,3.0,40,0.00,,,0.00,900.000000,,2013-07-20 17:22:00,
2013-07-20 11:43:00,72.0,44.0,-100.00,NW,305,1.0,3.0,37,0.00,,,0.00,969.000000,,2013-07-20 17:43:00,
2013-07-20 11:53:00,74.0,45.0,-100.00,WSW,253,2.0,4.0,35,0.00,,,0.00,984.000000,,2013-07-20 17:53:00,
2013-07-20 12:01:00,74.0,45.0,-100.00,WSW,254,0.0,3.0,35,0.00,,,0.00,998.000000,,2013-07-20 18:01:00,
2013-07-20 12:11:00,74.0,45.0,-100.00,WSW,254,0.0,3.0,35,0.00,,,0.00,1014.000000,,2013-07-20 18:11:00,
2013-07-20 12:32:00,75.0,47.0,-100.00,WSW,258,1.0,4.0,37,0.00,,,0.00,1044.000000,,2013-07-20 18:32:00,
2013-07-20 12:43:00,75.0,50.0,-100.00,NNW,332,1.0,5.0,41,0.00,,,0.00,1051.000000,,2013-07-20 18:43:00,
2013-07-20 12:53:00,75.0,48.0,-100.00,SE,126,2.0,4.0,39,0.00,,,0.00,1041.000000,,2013-07-20 18:53:00,
2013-07-20 13:02:00,76.0,49.0,-100.00,East,83,1.0,3.0,38,0.00,,,0.00,1032.000000,,2013-07-20 19:02:00,
2013-07-20 13:22:00,78.0,48.0,-100.00,NNW,333,1.0,3.0,35,0.00,,,0.00,1041.000000,,2013-07-20 19:22:00,
2013-07-20 13:52:00,83.0,41.0,-100.00,South,191,2.0,3.0,23,0.00,,,0.00,1058.000000,,2013-07-20 19:52:00,
2013-07-20 14:02:00,83.0,35.0,-100.00,SSW,202,5.0,11.0,18,0.00,,,0.00,1025.000000,,2013-07-20 20:02:00,
2013-07-20 14:11:00,83.0,39.0,-100.00,West,264,3.0,11.0,21,0.00,,,0.00,1055.000000,,2013-07-20 20:11:00,
2013-07-20 14:32:00,84.0,36.0,-100.00,WSW,255,0.0,9.0,18,0.00,,,0.00,1028.000000,,2013-07-20 20:32:00,
2013-07-20 14:52:00,83.0,38.0,-100.00,West,261,2.0,12.0,20,0.00,,,0.00,1056.000000,,2013-07-20 20:52:00,
2013-07-20 15:01:00,84.0,39.0,-100.00,West,280,1.0,7.0,20,0.00,,,0.00,1037.000000,,2013-07-20 21:01:00,
2013-07-20 15:11:00,84.0,36.0,-100.00,West,277,2.0,8.0,18,0.00,,,0.00,1025.000000,,2013-07-20 21:11:00,
2013-07-20 15:32:00,83.0,32.0,-100.00,NW,325,3.0,8.0,16,0.00,,,0.00,984.000000,,2013-07-20 21:32:00,
2013-07-20 15:43:00,84.0,30.0,-100.00,NW,322,1.0,10.0,14,0.00,,,0.00,958.000000,,2013-07-20 21:43:00,
2013-07-20 15:52:00,85.0,35.0,-100.00,NNW,329,4.0,11.0,17,0.00,,,0.00,951.000000,,2013-07-20 21:52:00,
2013-07-20 16:01:00,85.0,37.0,-100.00,WNW,295,4.0,9.0,18,0.00,,,0.00,932.000000,,2013-07-20 22:01:00,
2013-07-20 16:22:00,84.0,31.0,-100.00,NW,310,3.0,9.0,15,0.00,,,0.00,891.000000,,2013-07-20 22:22:00,
2013-07-20 16:32:00,84.0,33.0,-100.00,West,277,2.0,12.0,16,0.00,,,0.00,858.000000,,2013-07-20 22:32:00,
2013-07-20 16:43:00,84.0,33.0,-100.00,West,278,2.0,6.0,16,0.00,,,0.00,831.000000,,2013-07-20 22:43:00,
2013-07-20 16:52:00,84.0,33.0,-100.00,ENE,78,2.0,6.0,16,0.00,,,0.00,823.000000,,2013-07-20 22:52:00,
2013-07-20 17:01:00,84.0,34.0,-100.00,NNW,328,2.0,11.0,17,0.00,,,0.00,779.000000,,2013-07-20 23:01:00,
2013-07-20 17:12:00,85.0,32.0,-100.00,SE,140,2.0,12.0,15,0.00,,,0.00,747.000000,,2013-07-20 23:12:00,
2013-07-20 17:22:00,84.0,31.0,-100.00,West,261,5.0,14.0,15,0.00,,,0.00,710.000000,,2013-07-20 23:22:00,
2013-07-20 17:43:00,85.0,35.0,-100.00,NW,305,3.0,8.0,17,0.00,,,0.00,675.000000,,2013-07-20 23:43:00,
2013-07-20 19:01:00,83.0,34.0,-100.00,NE,56,4.0,9.0,17,0.00,,,0.00,104.000000,,2013-07-21 01:01:00,
2013-07-20 19:11:00,82.0,36.0,-100.00,NW,310,1.0,9.0,19,0.00,,,0.00,79.000000,,2013-07-21 01:11:00,
2013-07-20 19:50:00,-999.0,-99.9,-100.00,NW,310,0.0,0.0,-999,0.00,,,-99.99,,,2013-07-21 01:50:00,
2013-07-20 21:43:00,64.0,47.0,-100.00,NW,310,0.0,0.0,55,0.00,,,0.00,39.000000,,2013-07-21 03:43:00,
2013-07-20 22:01:00,63.0,48.0,-100.00,NW,310,0.0,0.0,59,0.00,,,0.00,37.000000,,2013-07-21 04:01:00,
2013-07-20 22:11:00,62.0,48.0,-100.00,NW,310,0.0,0.0,60,0.00,,,0.00,37.000000,,2013-07-21 04:11:00,
2013-07-20 22:32:00,61.0,49.0,-100.00,NW,310,0.0,1.0,65,0.00,,,0.00,37.000000,,2013-07-21 04:32:00,
2013-07-20 22:43:00,60.0,48.0,-100.00,NW,310,0.0,0.0,65,0.00,,,0.00,37.000000,,2013-07-21 04:43:00,
2013-07-20 22:53:00,60.0,48.0,-100.00,NW,310,0.0,0.0,65,0.00,,,0.00,37.000000,,2013-07-21 04:53:00,
2013-07-20 23:01:00,59.0,49.0,-100.00,NW,310,0.0,0.0,70,0.00,,,0.00,37.000000,,2013-07-21 05:01:00,
2013-07-20 23:32:00,58.0,49.0,-100.00,NW,310,0.0,0.0,72,0.00,,,0.00,39.000000,,2013-07-21 05:32:00,
2013-07-20 23:42:00,57.0,48.0,-100.00,NW,310,0.0,1.0,72,0.00,,,0.00,39.000000,,2013-07-21 05:42:00,
2013-07-20 23:52:00,56.0,48.0,-100.00,NW,310,0.0,0.0,75,0.00,,,0.00,40.000000,,2013-07-21 05:52:00,